sensor_id;sensor_type;location;lat;lon;timestamp;P1;durP1;ratioP1;P2;durP2;ratioP2
79025;SDS011;71097;44.760;37.726;2023-08-01T00:00:22;4.13;;;2.70;;
79025;SDS011;71097;44.760;37.726;2023-08-01T00:01:24;5.25;;;2.78;;
79025;SDS011;71097;44.760;37.726;2023-08-01T00:02:26;3.63;;;2.65;;
79025;SDS011;71097;44.760;37.726;2023-08-01T00:03:28;4.60;;;2.78;;
79025;SDS011;71097;44.760;37.726;2023-08-01T00:04:30;4.35;;;2.60;;
79025;SDS011;71097;44.760;37.726;2023-08-01T00:05:31;4.10;;;2.40;;
79025;SDS011;71097;44.760;37.726;2023-08-01T00:06:32;4.07;;;2.95;;
79025;SDS011;71097;44.760;37.726;2023-08-01T00:07:34;4.72;;;2.90;;
79025;SDS011;71097;44.760;37.726;2023-08-01T00:08:36;4.85;;;2.90;;
79025;SDS011;71097;44.760;37.726;2023-08-01T00:09:37;4.13;;;2.65;;
79025;SDS011;71097;44.760;37.726;2023-08-01T00:10:39;4.70;;;3.28;;
79025;SDS011;71097;44.760;37.726;2023-08-01T00:11:41;4.15;;;3.00;;
79025;SDS011;71097;44.760;37.726;2023-08-01T00:12:48;5.60;;;3.67;;
79025;SDS011;71097;44.760;37.726;2023-08-01T00:13:50;4.43;;;3.15;;
79025;SDS011;71097;44.760;37.726;2023-08-01T00:14:51;4.15;;;2.97;;
79025;SDS011;71097;44.760;37.726;2023-08-01T00:15:53;5.20;;;3.17;;
79025;SDS011;71097;44.760;37.726;2023-08-01T00:16:54;4.28;;;3.05;;
79025;SDS011;71097;44.760;37.726;2023-08-01T00:17:56;5.25;;;3.30;;
79025;SDS011;71097;44.760;37.726;2023-08-01T00:18:57;5.70;;;3.42;;
79025;SDS011;71097;44.760;37.726;2023-08-01T00:19:59;4.10;;;2.85;;
79025;SDS011;71097;44.760;37.726;2023-08-01T00:21:02;4.40;;;3.00;;
79025;SDS011;71097;44.760;37.726;2023-08-01T00:23:07;4.78;;;3.25;;
79025;SDS011;71097;44.760;37.726;2023-08-01T00:24:08;4.25;;;3.08;;
79025;SDS011;71097;44.760;37.726;2023-08-01T00:25:10;4.57;;;3.08;;
79025;SDS011;71097;44.760;37.726;2023-08-01T00:26:12;4.40;;;3.22;;
79025;SDS011;71097;44.760;37.726;2023-08-01T00:27:13;3.95;;;2.95;;
79025;SDS011;71097;44.760;37.726;2023-08-01T00:28:15;5.07;;;3.22;;
79025;SDS011;71097;44.760;37.726;2023-08-01T00:29:16;4.75;;;3.45;;
79025;SDS011;71097;44.760;37.726;2023-08-01T00:30:18;4.50;;;3.35;;
79025;SDS011;71097;44.760;37.726;2023-08-01T00:31:20;6.03;;;3.58;;
79025;SDS011;71097;44.760;37.726;2023-08-01T00:32:21;4.85;;;3.67;;
79025;SDS011;71097;44.760;37.726;2023-08-01T00:33:28;4.53;;;3.05;;
79025;SDS011;71097;44.760;37.726;2023-08-01T00:34:30;4.32;;;3.03;;
79025;SDS011;71097;44.760;37.726;2023-08-01T00:35:31;4.68;;;2.83;;
79025;SDS011;71097;44.760;37.726;2023-08-01T00:36:33;4.03;;;3.03;;
79025;SDS011;71097;44.760;37.726;2023-08-01T00:37:34;5.40;;;3.20;;
79025;SDS011;71097;44.760;37.726;2023-08-01T00:38:36;4.18;;;2.95;;
79025;SDS011;71097;44.760;37.726;2023-08-01T00:39:38;3.88;;;3.05;;
79025;SDS011;71097;44.760;37.726;2023-08-01T00:40:39;4.00;;;3.13;;
79025;SDS011;71097;44.760;37.726;2023-08-01T00:41:41;4.28;;;2.90;;
79025;SDS011;71097;44.760;37.726;2023-08-01T00:42:42;5.05;;;3.50;;
79025;SDS011;71097;44.760;37.726;2023-08-01T00:43:44;4.85;;;3.58;;
79025;SDS011;71097;44.760;37.726;2023-08-01T00:44:45;5.63;;;3.47;;
79025;SDS011;71097;44.760;37.726;2023-08-01T00:45:55;5.47;;;3.13;;
79025;SDS011;71097;44.760;37.726;2023-08-01T00:47:01;3.80;;;2.58;;
79025;SDS011;71097;44.760;37.726;2023-08-01T00:48:03;4.53;;;3.13;;
79025;SDS011;71097;44.760;37.726;2023-08-01T00:49:05;4.13;;;3.20;;
79025;SDS011;71097;44.760;37.726;2023-08-01T00:50:09;4.95;;;3.17;;
79025;SDS011;71097;44.760;37.726;2023-08-01T00:51:10;4.43;;;3.10;;
79025;SDS011;71097;44.760;37.726;2023-08-01T00:52:13;4.80;;;3.53;;
79025;SDS011;71097;44.760;37.726;2023-08-01T00:53:14;7.68;;;3.03;;
79025;SDS011;71097;44.760;37.726;2023-08-01T00:54:16;4.00;;;3.00;;
79025;SDS011;71097;44.760;37.726;2023-08-01T00:55:17;5.35;;;3.10;;
79025;SDS011;71097;44.760;37.726;2023-08-01T00:56:20;4.32;;;2.72;;
79025;SDS011;71097;44.760;37.726;2023-08-01T00:57:22;6.32;;;3.35;;
79025;SDS011;71097;44.760;37.726;2023-08-01T00:58:24;6.30;;;4.25;;
79025;SDS011;71097;44.760;37.726;2023-08-01T00:59:26;5.10;;;3.70;;
79025;SDS011;71097;44.760;37.726;2023-08-01T01:00:27;4.47;;;3.30;;
79025;SDS011;71097;44.760;37.726;2023-08-01T01:01:29;4.47;;;3.40;;
79025;SDS011;71097;44.760;37.726;2023-08-01T01:02:30;4.55;;;2.97;;
79025;SDS011;71097;44.760;37.726;2023-08-01T01:03:32;4.78;;;3.38;;
79025;SDS011;71097;44.760;37.726;2023-08-01T01:04:33;5.18;;;3.42;;
79025;SDS011;71097;44.760;37.726;2023-08-01T01:05:36;4.50;;;2.85;;
79025;SDS011;71097;44.760;37.726;2023-08-01T01:06:45;4.82;;;3.13;;
79025;SDS011;71097;44.760;37.726;2023-08-01T01:07:50;4.82;;;3.35;;
79025;SDS011;71097;44.760;37.726;2023-08-01T01:08:52;4.75;;;3.55;;
79025;SDS011;71097;44.760;37.726;2023-08-01T01:10:58;5.05;;;3.20;;
79025;SDS011;71097;44.760;37.726;2023-08-01T01:12:00;4.10;;;2.75;;
79025;SDS011;71097;44.760;37.726;2023-08-01T01:13:01;5.95;;;3.45;;
79025;SDS011;71097;44.760;37.726;2023-08-01T01:14:04;3.85;;;2.83;;
79025;SDS011;71097;44.760;37.726;2023-08-01T01:15:05;4.88;;;3.50;;
79025;SDS011;71097;44.760;37.726;2023-08-01T01:16:07;5.30;;;3.30;;
79025;SDS011;71097;44.760;37.726;2023-08-01T01:17:09;4.50;;;3.10;;
79025;SDS011;71097;44.760;37.726;2023-08-01T01:18:10;5.55;;;3.63;;
79025;SDS011;71097;44.760;37.726;2023-08-01T01:19:12;5.50;;;3.67;;
79025;SDS011;71097;44.760;37.726;2023-08-01T01:20:13;5.47;;;3.65;;
79025;SDS011;71097;44.760;37.726;2023-08-01T01:21:24;5.32;;;3.78;;
79025;SDS011;71097;44.760;37.726;2023-08-01T01:22:30;4.80;;;3.00;;
79025;SDS011;71097;44.760;37.726;2023-08-01T01:23:38;4.95;;;3.22;;
79025;SDS011;71097;44.760;37.726;2023-08-01T01:24:41;5.18;;;4.00;;
79025;SDS011;71097;44.760;37.726;2023-08-01T01:25:43;4.35;;;3.33;;
79025;SDS011;71097;44.760;37.726;2023-08-01T01:26:47;4.25;;;3.33;;
79025;SDS011;71097;44.760;37.726;2023-08-01T01:27:50;7.45;;;3.72;;
79025;SDS011;71097;44.760;37.726;2023-08-01T01:28:52;4.50;;;3.53;;
79025;SDS011;71097;44.760;37.726;2023-08-01T01:29:56;4.95;;;3.50;;
79025;SDS011;71097;44.760;37.726;2023-08-01T01:30:58;6.68;;;3.92;;
79025;SDS011;71097;44.760;37.726;2023-08-01T01:32:01;4.72;;;3.25;;
79025;SDS011;71097;44.760;37.726;2023-08-01T01:33:04;5.05;;;3.03;;
79025;SDS011;71097;44.760;37.726;2023-08-01T01:34:07;4.53;;;3.13;;
79025;SDS011;71097;44.760;37.726;2023-08-01T01:35:09;4.97;;;3.60;;
79025;SDS011;71097;44.760;37.726;2023-08-01T01:36:11;5.22;;;4.03;;
79025;SDS011;71097;44.760;37.726;2023-08-01T01:37:12;5.57;;;3.55;;
79025;SDS011;71097;44.760;37.726;2023-08-01T01:38:14;4.75;;;3.40;;
79025;SDS011;71097;44.760;37.726;2023-08-01T01:39:15;5.20;;;3.88;;
79025;SDS011;71097;44.760;37.726;2023-08-01T01:40:17;5.57;;;3.80;;
79025;SDS011;71097;44.760;37.726;2023-08-01T01:41:19;5.07;;;3.40;;
79025;SDS011;71097;44.760;37.726;2023-08-01T01:42:20;4.38;;;3.40;;
79025;SDS011;71097;44.760;37.726;2023-08-01T01:43:22;5.00;;;3.97;;
79025;SDS011;71097;44.760;37.726;2023-08-01T01:44:23;6.10;;;2.97;;
79025;SDS011;71097;44.760;37.726;2023-08-01T01:45:25;6.30;;;3.80;;
79025;SDS011;71097;44.760;37.726;2023-08-01T01:46:27;4.82;;;2.80;;
79025;SDS011;71097;44.760;37.726;2023-08-01T01:47:29;5.03;;;3.03;;
79025;SDS011;71097;44.760;37.726;2023-08-01T01:48:30;4.43;;;3.28;;
79025;SDS011;71097;44.760;37.726;2023-08-01T01:49:32;5.47;;;3.72;;
79025;SDS011;71097;44.760;37.726;2023-08-01T01:50:33;6.38;;;3.63;;
79025;SDS011;71097;44.760;37.726;2023-08-01T01:51:35;6.68;;;3.15;;
79025;SDS011;71097;44.760;37.726;2023-08-01T01:52:37;5.95;;;2.63;;
79025;SDS011;71097;44.760;37.726;2023-08-01T01:53:38;4.97;;;3.08;;
79025;SDS011;71097;44.760;37.726;2023-08-01T01:54:40;4.47;;;3.47;;
79025;SDS011;71097;44.760;37.726;2023-08-01T01:55:42;5.35;;;2.88;;
79025;SDS011;71097;44.760;37.726;2023-08-01T01:56:43;4.97;;;3.67;;
79025;SDS011;71097;44.760;37.726;2023-08-01T01:57:45;4.45;;;3.20;;
79025;SDS011;71097;44.760;37.726;2023-08-01T01:58:47;4.40;;;3.47;;
79025;SDS011;71097;44.760;37.726;2023-08-01T01:59:48;7.30;;;3.40;;
79025;SDS011;71097;44.760;37.726;2023-08-01T02:00:50;5.32;;;3.90;;
79025;SDS011;71097;44.760;37.726;2023-08-01T02:01:51;6.13;;;3.47;;
79025;SDS011;71097;44.760;37.726;2023-08-01T02:02:53;5.28;;;3.25;;
79025;SDS011;71097;44.760;37.726;2023-08-01T02:03:54;6.00;;;3.92;;
79025;SDS011;71097;44.760;37.726;2023-08-01T02:04:56;6.00;;;4.53;;
79025;SDS011;71097;44.760;37.726;2023-08-01T02:05:58;5.68;;;3.53;;
79025;SDS011;71097;44.760;37.726;2023-08-01T02:06:59;4.85;;;3.20;;
79025;SDS011;71097;44.760;37.726;2023-08-01T02:08:01;5.07;;;3.40;;
79025;SDS011;71097;44.760;37.726;2023-08-01T02:09:03;5.50;;;3.42;;
79025;SDS011;71097;44.760;37.726;2023-08-01T02:10:05;6.82;;;3.85;;
79025;SDS011;71097;44.760;37.726;2023-08-01T02:11:09;4.63;;;3.00;;
79025;SDS011;71097;44.760;37.726;2023-08-01T02:12:10;4.82;;;3.33;;
79025;SDS011;71097;44.760;37.726;2023-08-01T02:13:14;4.60;;;3.95;;
79025;SDS011;71097;44.760;37.726;2023-08-01T02:14:16;7.60;;;4.30;;
79025;SDS011;71097;44.760;37.726;2023-08-01T02:15:18;4.50;;;3.65;;
79025;SDS011;71097;44.760;37.726;2023-08-01T02:16:19;4.63;;;3.75;;
79025;SDS011;71097;44.760;37.726;2023-08-01T02:17:21;7.03;;;3.95;;
79025;SDS011;71097;44.760;37.726;2023-08-01T02:18:22;4.93;;;3.65;;
79025;SDS011;71097;44.760;37.726;2023-08-01T02:19:24;5.72;;;3.35;;
79025;SDS011;71097;44.760;37.726;2023-08-01T02:20:25;5.88;;;3.22;;
79025;SDS011;71097;44.760;37.726;2023-08-01T02:21:29;4.80;;;3.40;;
79025;SDS011;71097;44.760;37.726;2023-08-01T02:22:30;6.07;;;3.58;;
79025;SDS011;71097;44.760;37.726;2023-08-01T02:23:32;4.53;;;3.28;;
79025;SDS011;71097;44.760;37.726;2023-08-01T02:24:37;4.55;;;3.10;;
79025;SDS011;71097;44.760;37.726;2023-08-01T02:25:39;6.88;;;3.20;;
79025;SDS011;71097;44.760;37.726;2023-08-01T02:26:41;5.28;;;3.20;;
79025;SDS011;71097;44.760;37.726;2023-08-01T02:27:42;5.70;;;3.05;;
79025;SDS011;71097;44.760;37.726;2023-08-01T02:28:44;5.30;;;3.45;;
79025;SDS011;71097;44.760;37.726;2023-08-01T02:29:46;6.13;;;3.15;;
79025;SDS011;71097;44.760;37.726;2023-08-01T02:30:48;5.38;;;3.20;;
79025;SDS011;71097;44.760;37.726;2023-08-01T02:31:56;5.68;;;2.90;;
79025;SDS011;71097;44.760;37.726;2023-08-01T02:32:58;5.35;;;4.13;;
79025;SDS011;71097;44.760;37.726;2023-08-01T02:34:00;5.35;;;4.13;;
79025;SDS011;71097;44.760;37.726;2023-08-01T02:35:01;5.70;;;3.92;;
79025;SDS011;71097;44.760;37.726;2023-08-01T02:36:06;5.85;;;3.08;;
79025;SDS011;71097;44.760;37.726;2023-08-01T02:37:07;6.75;;;3.60;;
79025;SDS011;71097;44.760;37.726;2023-08-01T02:38:09;5.43;;;3.72;;
79025;SDS011;71097;44.760;37.726;2023-08-01T02:39:11;4.53;;;3.03;;
79025;SDS011;71097;44.760;37.726;2023-08-01T02:40:12;6.40;;;3.63;;
79025;SDS011;71097;44.760;37.726;2023-08-01T02:41:14;4.68;;;3.38;;
79025;SDS011;71097;44.760;37.726;2023-08-01T02:42:15;4.55;;;3.63;;
79025;SDS011;71097;44.760;37.726;2023-08-01T02:43:17;4.65;;;3.80;;
79025;SDS011;71097;44.760;37.726;2023-08-01T02:44:19;4.38;;;3.30;;
79025;SDS011;71097;44.760;37.726;2023-08-01T02:45:20;5.55;;;3.63;;
79025;SDS011;71097;44.760;37.726;2023-08-01T02:46:22;5.30;;;4.03;;
79025;SDS011;71097;44.760;37.726;2023-08-01T02:47:23;5.43;;;3.60;;
79025;SDS011;71097;44.760;37.726;2023-08-01T02:48:30;5.22;;;3.95;;
79025;SDS011;71097;44.760;37.726;2023-08-01T02:49:32;5.45;;;3.67;;
79025;SDS011;71097;44.760;37.726;2023-08-01T02:50:34;5.38;;;2.95;;
79025;SDS011;71097;44.760;37.726;2023-08-01T02:51:35;4.57;;;2.83;;
79025;SDS011;71097;44.760;37.726;2023-08-01T02:52:37;4.72;;;3.95;;
79025;SDS011;71097;44.760;37.726;2023-08-01T02:53:38;5.00;;;3.72;;
79025;SDS011;71097;44.760;37.726;2023-08-01T02:54:43;5.03;;;3.72;;
79025;SDS011;71097;44.760;37.726;2023-08-01T02:55:44;4.72;;;3.42;;
79025;SDS011;71097;44.760;37.726;2023-08-01T02:56:49;5.20;;;4.18;;
79025;SDS011;71097;44.760;37.726;2023-08-01T02:57:50;4.95;;;4.10;;
79025;SDS011;71097;44.760;37.726;2023-08-01T02:58:52;6.22;;;3.80;;
79025;SDS011;71097;44.760;37.726;2023-08-01T02:59:53;5.30;;;3.75;;
79025;SDS011;71097;44.760;37.726;2023-08-01T03:00:55;5.28;;;4.32;;
79025;SDS011;71097;44.760;37.726;2023-08-01T03:01:57;4.57;;;3.47;;
79025;SDS011;71097;44.760;37.726;2023-08-01T03:02:58;5.72;;;3.90;;
79025;SDS011;71097;44.760;37.726;2023-08-01T03:04:00;5.80;;;4.30;;
79025;SDS011;71097;44.760;37.726;2023-08-01T03:05:05;6.30;;;4.15;;
79025;SDS011;71097;44.760;37.726;2023-08-01T03:06:08;6.35;;;3.35;;
79025;SDS011;71097;44.760;37.726;2023-08-01T03:07:10;6.97;;;4.05;;
79025;SDS011;71097;44.760;37.726;2023-08-01T03:08:11;4.95;;;3.85;;
79025;SDS011;71097;44.760;37.726;2023-08-01T03:09:16;5.00;;;4.10;;
79025;SDS011;71097;44.760;37.726;2023-08-01T03:10:17;5.63;;;4.43;;
79025;SDS011;71097;44.760;37.726;2023-08-01T03:11:19;5.63;;;4.03;;
79025;SDS011;71097;44.760;37.726;2023-08-01T03:12:20;5.57;;;4.25;;
79025;SDS011;71097;44.760;37.726;2023-08-01T03:13:22;6.18;;;4.20;;
79025;SDS011;71097;44.760;37.726;2023-08-01T03:14:23;5.57;;;4.10;;
79025;SDS011;71097;44.760;37.726;2023-08-01T03:15:25;7.30;;;4.25;;
79025;SDS011;71097;44.760;37.726;2023-08-01T03:16:26;5.65;;;3.92;;
79025;SDS011;71097;44.760;37.726;2023-08-01T03:17:28;4.60;;;3.55;;
79025;SDS011;71097;44.760;37.726;2023-08-01T03:18:29;4.50;;;3.47;;
79025;SDS011;71097;44.760;37.726;2023-08-01T03:19:31;5.47;;;3.00;;
79025;SDS011;71097;44.760;37.726;2023-08-01T03:20:32;4.30;;;2.90;;
79025;SDS011;71097;44.760;37.726;2023-08-01T03:21:35;4.07;;;2.50;;
79025;SDS011;71097;44.760;37.726;2023-08-01T03:22:39;3.90;;;2.47;;
79025;SDS011;71097;44.760;37.726;2023-08-01T03:23:41;6.25;;;2.45;;
79025;SDS011;71097;44.760;37.726;2023-08-01T03:24:42;4.28;;;2.35;;
79025;SDS011;71097;44.760;37.726;2023-08-01T03:25:44;3.92;;;1.95;;
79025;SDS011;71097;44.760;37.726;2023-08-01T03:26:46;3.22;;;2.08;;
79025;SDS011;71097;44.760;37.726;2023-08-01T03:27:47;3.60;;;2.25;;
79025;SDS011;71097;44.760;37.726;2023-08-01T03:28:49;3.75;;;2.50;;
79025;SDS011;71097;44.760;37.726;2023-08-01T03:29:50;3.90;;;2.70;;
79025;SDS011;71097;44.760;37.726;2023-08-01T03:30:52;4.00;;;2.25;;
79025;SDS011;71097;44.760;37.726;2023-08-01T03:31:54;4.07;;;2.30;;
79025;SDS011;71097;44.760;37.726;2023-08-01T03:32:59;3.40;;;2.28;;
79025;SDS011;71097;44.760;37.726;2023-08-01T03:34:03;3.45;;;2.08;;
79025;SDS011;71097;44.760;37.726;2023-08-01T03:35:05;3.22;;;2.17;;
79025;SDS011;71097;44.760;37.726;2023-08-01T03:36:07;3.72;;;1.92;;
79025;SDS011;71097;44.760;37.726;2023-08-01T03:37:08;3.80;;;2.38;;
79025;SDS011;71097;44.760;37.726;2023-08-01T03:38:15;3.17;;;2.20;;
79025;SDS011;71097;44.760;37.726;2023-08-01T03:39:17;4.22;;;2.13;;
79025;SDS011;71097;44.760;37.726;2023-08-01T03:40:18;3.15;;;1.85;;
79025;SDS011;71097;44.760;37.726;2023-08-01T03:41:26;3.42;;;2.20;;
79025;SDS011;71097;44.760;37.726;2023-08-01T03:42:28;3.80;;;2.25;;
79025;SDS011;71097;44.760;37.726;2023-08-01T03:43:30;3.05;;;1.92;;
79025;SDS011;71097;44.760;37.726;2023-08-01T03:44:31;2.97;;;2.30;;
79025;SDS011;71097;44.760;37.726;2023-08-01T03:45:34;3.17;;;1.80;;
79025;SDS011;71097;44.760;37.726;2023-08-01T03:46:35;2.85;;;1.92;;
79025;SDS011;71097;44.760;37.726;2023-08-01T03:47:37;2.95;;;1.70;;
79025;SDS011;71097;44.760;37.726;2023-08-01T03:48:38;3.33;;;1.85;;
79025;SDS011;71097;44.760;37.726;2023-08-01T03:49:40;2.97;;;1.70;;
79025;SDS011;71097;44.760;37.726;2023-08-01T03:50:42;2.95;;;1.83;;
79025;SDS011;71097;44.760;37.726;2023-08-01T03:51:44;3.97;;;2.03;;
79025;SDS011;71097;44.760;37.726;2023-08-01T03:52:46;3.08;;;2.05;;
79025;SDS011;71097;44.760;37.726;2023-08-01T03:53:48;3.42;;;2.15;;
79025;SDS011;71097;44.760;37.726;2023-08-01T03:54:53;2.35;;;1.80;;
79025;SDS011;71097;44.760;37.726;2023-08-01T03:55:55;3.28;;;2.30;;
79025;SDS011;71097;44.760;37.726;2023-08-01T03:56:57;2.78;;;2.05;;
79025;SDS011;71097;44.760;37.726;2023-08-01T03:57:58;2.83;;;2.00;;
79025;SDS011;71097;44.760;37.726;2023-08-01T03:59:00;3.22;;;2.33;;
79025;SDS011;71097;44.760;37.726;2023-08-01T04:00:01;3.03;;;2.03;;
79025;SDS011;71097;44.760;37.726;2023-08-01T04:01:13;3.78;;;1.88;;
79025;SDS011;71097;44.760;37.726;2023-08-01T04:02:14;2.97;;;1.67;;
79025;SDS011;71097;44.760;37.726;2023-08-01T04:03:18;3.72;;;2.20;;
79025;SDS011;71097;44.760;37.726;2023-08-01T04:04:20;2.78;;;1.75;;
79025;SDS011;71097;44.760;37.726;2023-08-01T04:05:22;3.78;;;2.45;;
79025;SDS011;71097;44.760;37.726;2023-08-01T04:06:25;2.80;;;1.88;;
79025;SDS011;71097;44.760;37.726;2023-08-01T04:07:26;2.42;;;1.58;;
79025;SDS011;71097;44.760;37.726;2023-08-01T04:08:28;3.40;;;2.42;;
79025;SDS011;71097;44.760;37.726;2023-08-01T04:09:29;3.83;;;2.58;;
79025;SDS011;71097;44.760;37.726;2023-08-01T04:10:31;3.63;;;2.20;;
79025;SDS011;71097;44.760;37.726;2023-08-01T04:11:32;3.28;;;2.22;;
79025;SDS011;71097;44.760;37.726;2023-08-01T04:12:34;4.25;;;2.47;;
79025;SDS011;71097;44.760;37.726;2023-08-01T04:13:36;3.22;;;2.00;;
79025;SDS011;71097;44.760;37.726;2023-08-01T04:14:37;2.60;;;1.60;;
79025;SDS011;71097;44.760;37.726;2023-08-01T04:15:39;3.35;;;1.77;;
79025;SDS011;71097;44.760;37.726;2023-08-01T04:16:40;2.92;;;1.70;;
79025;SDS011;71097;44.760;37.726;2023-08-01T04:17:43;2.97;;;1.85;;
79025;SDS011;71097;44.760;37.726;2023-08-01T04:18:44;2.60;;;1.55;;
79025;SDS011;71097;44.760;37.726;2023-08-01T04:19:46;3.38;;;1.83;;
79025;SDS011;71097;44.760;37.726;2023-08-01T04:20:47;3.35;;;2.10;;
79025;SDS011;71097;44.760;37.726;2023-08-01T04:21:50;3.33;;;2.22;;
79025;SDS011;71097;44.760;37.726;2023-08-01T04:22:52;3.28;;;2.15;;
79025;SDS011;71097;44.760;37.726;2023-08-01T04:23:53;3.17;;;2.35;;
79025;SDS011;71097;44.760;37.726;2023-08-01T04:24:55;3.72;;;2.35;;
79025;SDS011;71097;44.760;37.726;2023-08-01T04:25:59;3.60;;;2.60;;
79025;SDS011;71097;44.760;37.726;2023-08-01T04:27:00;3.47;;;2.40;;
79025;SDS011;71097;44.760;37.726;2023-08-01T04:28:02;3.78;;;2.50;;
79025;SDS011;71097;44.760;37.726;2023-08-01T04:29:04;4.75;;;3.03;;
79025;SDS011;71097;44.760;37.726;2023-08-01T04:30:06;3.85;;;2.45;;
79025;SDS011;71097;44.760;37.726;2023-08-01T04:31:08;3.83;;;1.75;;
79025;SDS011;71097;44.760;37.726;2023-08-01T04:32:10;3.22;;;2.15;;
79025;SDS011;71097;44.760;37.726;2023-08-01T04:33:14;3.45;;;2.60;;
79025;SDS011;71097;44.760;37.726;2023-08-01T04:34:16;3.60;;;2.30;;
79025;SDS011;71097;44.760;37.726;2023-08-01T04:35:18;3.70;;;2.33;;
79025;SDS011;71097;44.760;37.726;2023-08-01T04:36:19;3.13;;;2.33;;
79025;SDS011;71097;44.760;37.726;2023-08-01T04:37:21;4.53;;;2.63;;
79025;SDS011;71097;44.760;37.726;2023-08-01T04:38:24;3.25;;;2.17;;
79025;SDS011;71097;44.760;37.726;2023-08-01T04:39:25;3.90;;;2.53;;
79025;SDS011;71097;44.760;37.726;2023-08-01T04:40:27;3.58;;;2.28;;
79025;SDS011;71097;44.760;37.726;2023-08-01T04:41:29;3.60;;;2.33;;
79025;SDS011;71097;44.760;37.726;2023-08-01T04:42:33;3.17;;;2.20;;
79025;SDS011;71097;44.760;37.726;2023-08-01T04:43:35;3.47;;;1.98;;
79025;SDS011;71097;44.760;37.726;2023-08-01T04:44:36;3.92;;;2.30;;
79025;SDS011;71097;44.760;37.726;2023-08-01T04:45:38;3.53;;;1.98;;
79025;SDS011;71097;44.760;37.726;2023-08-01T04:46:39;4.05;;;2.17;;
79025;SDS011;71097;44.760;37.726;2023-08-01T04:47:41;4.13;;;2.22;;
79025;SDS011;71097;44.760;37.726;2023-08-01T04:48:43;3.13;;;2.05;;
79025;SDS011;71097;44.760;37.726;2023-08-01T04:49:44;3.60;;;2.00;;
79025;SDS011;71097;44.760;37.726;2023-08-01T04:50:46;3.50;;;2.15;;
79025;SDS011;71097;44.760;37.726;2023-08-01T04:51:50;3.55;;;2.30;;
79025;SDS011;71097;44.760;37.726;2023-08-01T04:52:52;3.63;;;2.33;;
79025;SDS011;71097;44.760;37.726;2023-08-01T04:53:54;3.70;;;2.25;;
79025;SDS011;71097;44.760;37.726;2023-08-01T04:54:55;3.78;;;2.42;;
79025;SDS011;71097;44.760;37.726;2023-08-01T04:55:57;3.25;;;2.42;;
79025;SDS011;71097;44.760;37.726;2023-08-01T04:56:58;3.55;;;2.20;;
79025;SDS011;71097;44.760;37.726;2023-08-01T04:58:00;3.90;;;2.38;;
79025;SDS011;71097;44.760;37.726;2023-08-01T04:59:02;3.65;;;2.00;;
79025;SDS011;71097;44.760;37.726;2023-08-01T05:00:03;4.32;;;2.65;;
79025;SDS011;71097;44.760;37.726;2023-08-01T05:01:06;3.25;;;2.13;;
79025;SDS011;71097;44.760;37.726;2023-08-01T05:02:08;3.50;;;1.80;;
79025;SDS011;71097;44.760;37.726;2023-08-01T05:03:10;3.20;;;1.80;;
79025;SDS011;71097;44.760;37.726;2023-08-01T05:04:12;3.40;;;1.77;;
79025;SDS011;71097;44.760;37.726;2023-08-01T05:05:17;3.47;;;2.25;;
79025;SDS011;71097;44.760;37.726;2023-08-01T05:06:19;3.78;;;2.42;;
79025;SDS011;71097;44.760;37.726;2023-08-01T05:07:21;3.20;;;2.20;;
79025;SDS011;71097;44.760;37.726;2023-08-01T05:08:23;3.92;;;2.45;;
79025;SDS011;71097;44.760;37.726;2023-08-01T05:09:25;3.58;;;2.42;;
79025;SDS011;71097;44.760;37.726;2023-08-01T05:10:26;3.58;;;2.08;;
79025;SDS011;71097;44.760;37.726;2023-08-01T05:11:33;3.78;;;2.40;;
79025;SDS011;71097;44.760;37.726;2023-08-01T05:12:34;4.47;;;2.45;;
79025;SDS011;71097;44.760;37.726;2023-08-01T05:13:36;2.60;;;1.77;;
79025;SDS011;71097;44.760;37.726;2023-08-01T05:14:38;3.55;;;2.30;;
79025;SDS011;71097;44.760;37.726;2023-08-01T05:15:39;2.92;;;1.83;;
79025;SDS011;71097;44.760;37.726;2023-08-01T05:16:41;3.75;;;2.38;;
79025;SDS011;71097;44.760;37.726;2023-08-01T05:17:42;3.08;;;1.60;;
79025;SDS011;71097;44.760;37.726;2023-08-01T05:18:44;2.40;;;1.52;;
79025;SDS011;71097;44.760;37.726;2023-08-01T05:19:46;3.13;;;1.60;;
79025;SDS011;71097;44.760;37.726;2023-08-01T05:20:48;3.38;;;2.25;;
79025;SDS011;71097;44.760;37.726;2023-08-01T05:21:49;3.40;;;2.30;;
79025;SDS011;71097;44.760;37.726;2023-08-01T05:22:51;3.00;;;2.10;;
79025;SDS011;71097;44.760;37.726;2023-08-01T05:23:53;3.63;;;2.20;;
79025;SDS011;71097;44.760;37.726;2023-08-01T05:24:55;3.35;;;2.45;;
79025;SDS011;71097;44.760;37.726;2023-08-01T05:25:57;5.13;;;3.05;;
79025;SDS011;71097;44.760;37.726;2023-08-01T05:26:59;4.10;;;2.38;;
79025;SDS011;71097;44.760;37.726;2023-08-01T05:28:01;3.92;;;2.70;;
79025;SDS011;71097;44.760;37.726;2023-08-01T05:29:06;3.67;;;2.00;;
79025;SDS011;71097;44.760;37.726;2023-08-01T05:30:11;3.85;;;2.80;;
79025;SDS011;71097;44.760;37.726;2023-08-01T05:31:13;4.93;;;2.00;;
79025;SDS011;71097;44.760;37.726;2023-08-01T05:32:15;2.58;;;1.75;;
79025;SDS011;71097;44.760;37.726;2023-08-01T05:33:17;3.20;;;1.95;;
79025;SDS011;71097;44.760;37.726;2023-08-01T05:34:19;3.40;;;2.17;;
79025;SDS011;71097;44.760;37.726;2023-08-01T05:35:23;4.00;;;2.15;;
79025;SDS011;71097;44.760;37.726;2023-08-01T05:36:28;4.60;;;2.47;;
79025;SDS011;71097;44.760;37.726;2023-08-01T05:37:33;3.05;;;1.98;;
79025;SDS011;71097;44.760;37.726;2023-08-01T05:38:35;2.70;;;1.70;;
79025;SDS011;71097;44.760;37.726;2023-08-01T05:39:37;3.05;;;1.55;;
79025;SDS011;71097;44.760;37.726;2023-08-01T05:40:50;2.80;;;2.03;;
79025;SDS011;71097;44.760;37.726;2023-08-01T05:41:52;2.53;;;1.75;;
79025;SDS011;71097;44.760;37.726;2023-08-01T05:42:54;3.70;;;2.25;;
79025;SDS011;71097;44.760;37.726;2023-08-01T05:43:57;3.00;;;2.03;;
79025;SDS011;71097;44.760;37.726;2023-08-01T05:45:03;2.67;;;1.80;;
79025;SDS011;71097;44.760;37.726;2023-08-01T05:46:05;3.60;;;1.98;;
79025;SDS011;71097;44.760;37.726;2023-08-01T05:47:07;3.30;;;1.83;;
79025;SDS011;71097;44.760;37.726;2023-08-01T05:48:09;3.08;;;1.70;;
79025;SDS011;71097;44.760;37.726;2023-08-01T05:49:13;2.63;;;1.75;;
79025;SDS011;71097;44.760;37.726;2023-08-01T05:50:15;2.90;;;1.90;;
79025;SDS011;71097;44.760;37.726;2023-08-01T05:51:23;2.80;;;1.75;;
79025;SDS011;71097;44.760;37.726;2023-08-01T05:52:24;2.85;;;1.60;;
79025;SDS011;71097;44.760;37.726;2023-08-01T05:53:26;2.80;;;1.55;;
79025;SDS011;71097;44.760;37.726;2023-08-01T05:54:29;3.22;;;2.08;;
79025;SDS011;71097;44.760;37.726;2023-08-01T05:55:31;3.67;;;2.13;;
79025;SDS011;71097;44.760;37.726;2023-08-01T05:56:32;3.30;;;1.90;;
79025;SDS011;71097;44.760;37.726;2023-08-01T05:57:36;2.85;;;1.60;;
79025;SDS011;71097;44.760;37.726;2023-08-01T05:58:38;2.72;;;1.65;;
79025;SDS011;71097;44.760;37.726;2023-08-01T05:59:39;2.72;;;1.77;;
79025;SDS011;71097;44.760;37.726;2023-08-01T06:00:41;2.83;;;1.95;;
79025;SDS011;71097;44.760;37.726;2023-08-01T06:01:44;2.35;;;1.50;;
79025;SDS011;71097;44.760;37.726;2023-08-01T06:02:54;3.00;;;1.90;;
79025;SDS011;71097;44.760;37.726;2023-08-01T06:05:12;2.30;;;1.40;;
79025;SDS011;71097;44.760;37.726;2023-08-01T06:06:13;3.08;;;1.95;;
79025;SDS011;71097;44.760;37.726;2023-08-01T06:07:15;2.80;;;1.60;;
79025;SDS011;71097;44.760;37.726;2023-08-01T06:08:25;2.30;;;1.60;;
79025;SDS011;71097;44.760;37.726;2023-08-01T06:09:27;4.30;;;2.33;;
79025;SDS011;71097;44.760;37.726;2023-08-01T06:10:37;2.58;;;1.60;;
79025;SDS011;71097;44.760;37.726;2023-08-01T06:11:40;3.20;;;1.52;;
79025;SDS011;71097;44.760;37.726;2023-08-01T06:12:41;2.35;;;1.40;;